createdAt,value
2023-01-21T00:00:46.344Z,7.03
2023-01-21T00:03:13.741Z,0.63
2023-01-21T00:05:41.128Z,2.83
2023-01-21T00:08:08.381Z,1.63
2023-01-21T00:10:35.741Z,0.30
2023-01-21T00:13:03.004Z,0.90
2023-01-21T00:15:30.456Z,1.53
2023-01-21T00:17:57.717Z,0.30
2023-01-21T00:20:25.052Z,3.27
2023-01-21T00:22:55.839Z,1.23
2023-01-21T00:25:23.185Z,0.30
2023-01-21T00:27:50.479Z,0.30
2023-01-21T00:30:18.342Z,0.50
2023-01-21T00:32:45.922Z,0.40
2023-01-21T00:35:13.238Z,0.30
2023-01-21T00:37:40.549Z,0.43
2023-01-21T00:40:08.016Z,0.20
2023-01-21T00:42:35.347Z,1.17
2023-01-21T00:45:02.652Z,0.40
2023-01-21T00:47:30.011Z,0.40
2023-01-21T00:49:57.365Z,3.80
2023-01-21T00:52:24.754Z,7.30
2023-01-21T00:54:52.000Z,0.50
2023-01-21T00:57:19.323Z,0.40
2023-01-21T00:59:46.694Z,0.30
2023-01-21T01:02:13.974Z,0.40
2023-01-21T01:04:41.379Z,2.97
2023-01-21T01:07:08.828Z,3.13
2023-01-21T01:09:36.192Z,3.30
2023-01-21T01:12:03.549Z,0.43
2023-01-21T01:14:30.839Z,1.60
2023-01-21T01:16:58.239Z,0.40
2023-01-21T01:19:25.621Z,0.80
2023-01-21T01:21:53.098Z,2.87
2023-01-21T01:24:20.328Z,12.03
2023-01-21T01:26:47.614Z,13.97
2023-01-21T01:29:14.879Z,11.93
2023-01-21T01:31:43.848Z,11.10
2023-01-21T01:34:11.171Z,0.30
2023-01-21T01:36:38.572Z,0.40
2023-01-21T01:39:05.890Z,0.60
2023-01-21T01:41:35.098Z,2.17
2023-01-21T01:44:06.269Z,6.40
2023-01-21T01:46:34.461Z,0.90
2023-01-21T01:49:07.128Z,0.63
2023-01-21T01:51:54.747Z,0.60
2023-01-21T01:54:25.820Z,1.70
2023-01-21T01:56:53.663Z,0.47
2023-01-21T01:59:21.039Z,0.30
2023-01-21T02:01:48.490Z,0.47
2023-01-21T02:04:18.285Z,0.40
2023-01-21T02:06:45.591Z,0.60
2023-01-21T02:09:12.914Z,1.47
2023-01-21T02:11:40.243Z,0.50
2023-01-21T02:14:07.507Z,1.27
2023-01-21T02:16:47.555Z,0.90
2023-01-21T02:19:30.170Z,1.63
2023-01-21T02:21:57.598Z,0.30
2023-01-21T02:24:24.866Z,0.30
2023-01-21T02:27:06.103Z,0.47
2023-01-21T02:29:39.363Z,1.13
2023-01-21T02:32:28.929Z,1.53
2023-01-21T02:35:06.182Z,0.73
2023-01-21T02:37:36.984Z,0.50
2023-01-21T02:40:11.570Z,0.40
2023-01-21T02:42:49.071Z,2.93
2023-01-21T02:45:16.572Z,0.33
2023-01-21T02:47:43.865Z,1.17
2023-01-21T02:50:14.167Z,1.47
2023-01-21T02:52:41.620Z,0.30
2023-01-21T02:55:15.608Z,1.47
2023-01-21T02:57:43.489Z,0.73
2023-01-21T03:00:12.427Z,0.30
2023-01-21T03:02:58.458Z,0.40
2023-01-21T03:05:44.357Z,0.30
2023-01-21T03:08:22.259Z,0.97
2023-01-21T03:10:55.481Z,0.60
2023-01-21T03:13:43.422Z,0.30
2023-01-21T03:16:30.509Z,0.40
2023-01-21T03:18:57.918Z,0.40
2023-01-21T03:21:26.389Z,1.43
2023-01-21T03:23:53.835Z,0.30
2023-01-21T03:26:40.264Z,1.00
2023-01-21T03:29:08.768Z,1.03
2023-01-21T03:31:36.178Z,0.20
2023-01-21T03:34:04.318Z,0.30
2023-01-21T03:36:37.828Z,0.40
2023-01-21T03:39:08.398Z,0.30
2023-01-21T03:41:36.732Z,2.63
2023-01-21T03:44:04.013Z,1.57
2023-01-21T03:46:34.462Z,1.60
2023-01-21T03:49:03.931Z,1.47
2023-01-21T03:51:35.495Z,0.60
2023-01-21T03:54:02.756Z,0.40
2023-01-21T03:56:30.111Z,0.30
2023-01-21T03:58:57.464Z,1.33
2023-01-21T04:01:24.814Z,0.50
2023-01-21T04:03:52.140Z,0.37
2023-01-21T04:06:20.756Z,0.30
2023-01-21T04:08:48.074Z,0.30
2023-01-21T04:11:15.480Z,0.40
2023-01-21T04:13:42.781Z,1.90
2023-01-21T04:16:10.180Z,0.30
2023-01-21T04:18:37.659Z,1.30
2023-01-21T04:21:05.168Z,0.80
2023-01-21T04:23:32.576Z,3.70
2023-01-21T04:25:59.891Z,3.23
2023-01-21T04:28:27.247Z,11.17
2023-01-21T04:30:54.613Z,10.87
2023-01-21T04:33:21.953Z,11.83
2023-01-21T04:35:49.417Z,11.60
2023-01-21T04:38:16.676Z,13.87
2023-01-21T04:40:44.046Z,13.63
2023-01-21T04:43:11.462Z,12.20
2023-01-21T04:45:38.839Z,4.10
2023-01-21T04:48:06.275Z,0.40
2023-01-21T04:50:33.795Z,0.40
2023-01-21T04:53:01.118Z,0.40
2023-01-21T04:55:28.474Z,0.30
2023-01-21T04:57:55.709Z,0.30
2023-01-21T05:00:23.284Z,0.87
2023-01-21T05:02:50.608Z,0.30
2023-01-21T05:05:18.056Z,0.30
2023-01-21T05:07:45.340Z,0.57
2023-01-21T05:10:21.488Z,0.53
2023-01-21T05:12:48.965Z,0.93
2023-01-21T05:15:16.335Z,0.30
2023-01-21T05:17:43.698Z,0.33
2023-01-21T05:20:11.480Z,0.30
2023-01-21T05:22:38.788Z,0.30
2023-01-21T05:25:06.646Z,0.70
2023-01-21T05:27:34.743Z,1.27
2023-01-21T05:30:02.078Z,0.47
2023-01-21T05:32:29.426Z,1.47
2023-01-21T05:34:56.727Z,0.87
2023-01-21T05:37:24.037Z,0.40
2023-01-21T05:39:51.315Z,0.93
2023-01-21T05:42:18.658Z,0.30
2023-01-21T05:44:45.912Z,0.23
2023-01-21T05:47:13.332Z,0.40
2023-01-21T05:49:40.645Z,0.40
2023-01-21T05:52:07.919Z,1.67
2023-01-21T05:54:35.172Z,0.97
2023-01-21T05:57:02.420Z,0.53
2023-01-21T05:59:29.692Z,0.50
2023-01-21T06:01:57.061Z,0.57
2023-01-21T06:04:28.463Z,0.30
2023-01-21T06:06:55.919Z,1.30
2023-01-21T06:09:23.215Z,0.30
2023-01-21T06:11:50.548Z,0.40
2023-01-21T06:14:17.876Z,0.40
2023-01-21T06:16:45.232Z,0.57
2023-01-21T06:19:12.668Z,0.30
2023-01-21T06:21:40.009Z,2.20
2023-01-21T06:24:07.766Z,0.60
2023-01-21T06:26:35.154Z,1.90
2023-01-21T06:29:02.381Z,0.40
2023-01-21T06:31:29.848Z,0.40
2023-01-21T06:33:57.253Z,0.50
2023-01-21T06:36:24.647Z,0.30
2023-01-21T06:38:52.084Z,0.30
2023-01-21T06:41:19.349Z,1.63
2023-01-21T06:43:46.613Z,0.60
2023-01-21T06:46:14.078Z,1.80
2023-01-21T06:48:43.304Z,8.73
2023-01-21T06:51:10.675Z,9.97
2023-01-21T06:53:38.029Z,11.47
2023-01-21T06:56:05.548Z,5.40
2023-01-21T06:58:32.917Z,7.50
2023-01-21T07:01:00.425Z,5.90
2023-01-21T07:03:27.750Z,2.23
2023-01-21T07:05:55.099Z,0.40
2023-01-21T07:08:22.432Z,9.97
2023-01-21T07:10:49.825Z,8.43
2023-01-21T07:13:17.165Z,1.67
2023-01-21T07:15:44.576Z,0.83
2023-01-21T07:18:11.821Z,0.40
2023-01-21T07:20:40.925Z,0.60
2023-01-21T07:23:08.345Z,0.30
2023-01-21T07:25:37.453Z,0.70
2023-01-21T07:28:04.718Z,2.53
2023-01-21T07:30:31.992Z,1.80
2023-01-21T07:32:59.321Z,0.40
2023-01-21T07:35:26.584Z,0.30
2023-01-21T07:37:53.997Z,0.40
2023-01-21T07:40:21.784Z,0.40
2023-01-21T07:42:55.453Z,0.40
2023-01-21T07:45:23.177Z,0.73
2023-01-21T07:47:50.728Z,0.40
2023-01-21T07:50:18.156Z,0.40
2023-01-21T07:52:45.594Z,0.40
2023-01-21T07:55:12.945Z,0.40
2023-01-21T07:57:40.298Z,0.60
2023-01-21T08:00:08.094Z,0.40
2023-01-21T08:02:35.592Z,0.60
2023-01-21T08:05:02.949Z,0.40
2023-01-21T08:07:30.378Z,2.60
2023-01-21T08:09:57.648Z,0.83
2023-01-21T08:12:27.158Z,0.57
2023-01-21T08:14:54.630Z,2.63
2023-01-21T08:17:22.083Z,1.23
2023-01-21T08:19:49.478Z,1.00
2023-01-21T08:22:16.804Z,2.00
2023-01-21T08:24:44.155Z,0.40
2023-01-21T08:27:11.491Z,1.80
2023-01-21T08:29:38.742Z,0.50
2023-01-21T08:32:06.013Z,0.40
2023-01-21T08:34:33.819Z,0.40
2023-01-21T08:37:01.423Z,1.80
2023-01-21T08:39:28.802Z,0.40
2023-01-21T08:41:56.130Z,0.33
2023-01-21T08:44:23.553Z,2.20
2023-01-21T08:46:51.069Z,1.37
2023-01-21T08:49:18.412Z,0.40
2023-01-21T08:51:46.062Z,0.27
2023-01-21T08:54:13.451Z,0.40
2023-01-21T08:56:40.826Z,0.40
2023-01-21T08:59:08.242Z,0.40
2023-01-21T09:01:37.993Z,0.30
2023-01-21T09:04:05.439Z,0.30
2023-01-21T09:06:32.793Z,0.40
2023-01-21T09:09:00.101Z,0.20
2023-01-21T09:11:27.496Z,0.60
2023-01-21T09:13:55.383Z,0.30
2023-01-21T09:16:23.293Z,1.53
2023-01-21T09:18:50.808Z,0.77
2023-01-21T09:21:18.100Z,0.87
2023-01-21T09:23:45.533Z,0.40
2023-01-21T09:26:19.829Z,0.93
2023-01-21T09:28:52.928Z,0.87
2023-01-21T09:31:23.943Z,0.40
2023-01-21T09:33:51.887Z,0.80
2023-01-21T09:36:22.636Z,0.37
2023-01-21T09:38:50.063Z,0.37
2023-01-21T09:41:50.062Z,0.40
2023-01-21T09:44:25.649Z,0.30
2023-01-21T09:47:02.197Z,0.60
2023-01-21T09:49:31.225Z,0.83
2023-01-21T09:52:01.627Z,1.60
2023-01-21T09:54:32.570Z,0.77
2023-01-21T09:57:02.895Z,0.40
2023-01-21T09:59:40.137Z,0.57
2023-01-21T10:02:08.355Z,0.40
2023-01-21T10:05:02.292Z,0.30
2023-01-21T10:07:34.941Z,0.30
2023-01-21T10:10:06.498Z,0.40
2023-01-21T10:12:49.076Z,0.20
2023-01-21T10:15:25.579Z,1.57
2023-01-21T10:17:53.259Z,0.67
2023-01-21T10:20:25.531Z,2.00
2023-01-21T10:22:58.009Z,0.30
2023-01-21T10:25:26.662Z,2.00
2023-01-21T10:27:54.069Z,2.07
2023-01-21T10:30:22.769Z,1.03
2023-01-21T10:32:51.290Z,2.47
2023-01-21T10:35:18.996Z,5.47
2023-01-21T10:37:52.103Z,1.23
2023-01-21T10:40:42.444Z,1.67
2023-01-21T10:43:12.615Z,2.20
2023-01-21T10:45:42.894Z,0.43
2023-01-21T10:48:22.536Z,0.87
2023-01-21T10:50:57.780Z,3.90
2023-01-21T10:53:36.790Z,0.30
2023-01-21T10:56:04.046Z,0.40
2023-01-21T10:58:33.423Z,1.23
2023-01-21T11:01:02.009Z,1.07
2023-01-21T11:03:29.335Z,1.40
2023-01-21T11:05:56.873Z,0.40
2023-01-21T11:08:24.249Z,2.63
2023-01-21T11:10:55.362Z,8.07
2023-01-21T11:13:23.450Z,1.67
2023-01-21T11:15:52.612Z,0.70
2023-01-21T11:18:32.267Z,0.60
2023-01-21T11:21:00.512Z,2.30
2023-01-21T11:23:31.688Z,2.30
2023-01-21T11:26:17.782Z,0.90
2023-01-21T11:28:46.042Z,0.90
2023-01-21T11:31:14.262Z,1.17
2023-01-21T11:33:42.348Z,2.63
2023-01-21T11:36:10.611Z,4.07
2023-01-21T11:38:38.013Z,1.47
2023-01-21T11:41:14.587Z,1.17
2023-01-21T11:43:41.922Z,0.50
2023-01-21T11:46:21.592Z,1.40
2023-01-21T11:48:49.046Z,2.10
2023-01-21T11:51:18.001Z,1.10
2023-01-21T11:53:46.823Z,1.77
2023-01-21T11:56:14.754Z,2.00
2023-01-21T11:58:42.076Z,1.43
2023-01-21T12:01:19.434Z,1.90
2023-01-21T12:03:47.529Z,0.93
2023-01-21T12:06:18.768Z,0.40
2023-01-21T12:08:47.711Z,3.10
2023-01-21T12:11:15.355Z,0.53
2023-01-21T12:13:42.672Z,0.67
2023-01-21T12:16:16.083Z,0.60
2023-01-21T12:18:43.559Z,1.43
2023-01-21T12:21:20.626Z,1.47
2023-01-21T12:23:49.542Z,0.40
2023-01-21T12:26:35.663Z,1.67
2023-01-21T12:29:19.454Z,1.07
2023-01-21T12:32:08.576Z,0.23
2023-01-21T12:34:35.908Z,1.17
2023-01-21T12:37:04.868Z,0.40
2023-01-21T12:39:33.719Z,3.80
2023-01-21T12:42:10.389Z,0.30
2023-01-21T12:44:43.104Z,0.87
2023-01-21T12:47:24.905Z,1.07
2023-01-21T12:49:58.537Z,1.17
2023-01-21T12:52:32.009Z,1.17
2023-01-21T12:55:05.291Z,0.40
2023-01-21T12:57:35.360Z,0.53
2023-01-21T13:00:07.281Z,0.33
2023-01-21T13:02:53.436Z,1.57
2023-01-21T13:05:40.643Z,0.30
2023-01-21T13:08:26.799Z,0.77
2023-01-21T13:10:59.015Z,3.20
2023-01-21T13:13:55.624Z,0.73
2023-01-21T13:16:23.799Z,0.47
2023-01-21T13:18:54.660Z,0.73
2023-01-21T13:21:39.339Z,0.90
2023-01-21T13:24:06.650Z,0.73
2023-01-21T13:26:37.720Z,0.50
2023-01-21T13:29:26.658Z,0.30
2023-01-21T13:32:12.331Z,0.37
2023-01-21T13:34:45.953Z,0.40
2023-01-21T13:37:19.511Z,0.50
2023-01-21T13:40:06.405Z,0.30
2023-01-21T13:42:37.284Z,0.50
2023-01-21T13:45:21.969Z,0.93
2023-01-21T13:47:55.102Z,0.67
2023-01-21T13:50:22.392Z,0.30
2023-01-21T13:53:08.461Z,0.30
2023-01-21T13:55:47.768Z,1.20
2023-01-21T13:58:16.202Z,0.47
2023-01-21T14:00:43.527Z,0.40
2023-01-21T14:03:13.361Z,1.17
2023-01-21T14:05:42.767Z,0.30
2023-01-21T14:08:16.740Z,0.33
2023-01-21T14:10:46.012Z,1.23
2023-01-21T14:13:13.319Z,0.50
2023-01-21T14:15:40.755Z,2.93
2023-01-21T14:18:11.805Z,1.37
2023-01-21T14:20:39.038Z,0.50
2023-01-21T14:23:10.497Z,0.20
2023-01-21T14:25:56.511Z,1.67
2023-01-21T14:28:28.420Z,0.30
2023-01-21T14:31:02.575Z,5.90
2023-01-21T14:33:48.064Z,0.60
2023-01-21T14:36:18.552Z,0.20
2023-01-21T14:38:55.099Z,0.40
2023-01-21T14:41:22.434Z,0.33
2023-01-21T14:43:50.457Z,0.80
2023-01-21T14:46:24.224Z,0.80
2023-01-21T14:49:00.417Z,2.27
2023-01-21T14:51:28.433Z,0.20
2023-01-21T14:54:00.345Z,0.30
2023-01-21T14:56:32.589Z,0.27
2023-01-21T14:58:59.955Z,0.40
2023-01-21T15:01:28.662Z,0.27
2023-01-21T15:03:56.772Z,0.20
2023-01-21T15:06:24.057Z,0.30
2023-01-21T15:08:52.566Z,0.70
2023-01-21T15:11:43.213Z,1.33
2023-01-21T15:14:15.075Z,1.07
2023-01-21T15:16:42.940Z,0.30
2023-01-21T15:19:14.812Z,0.30
2023-01-21T15:21:45.018Z,1.17
2023-01-21T15:24:27.407Z,2.33
2023-01-21T15:27:13.570Z,0.83
2023-01-21T15:29:41.331Z,0.80
2023-01-21T15:32:27.863Z,0.40
2023-01-21T15:35:02.352Z,0.20
2023-01-21T15:37:30.358Z,0.40
2023-01-21T15:39:59.453Z,0.30
2023-01-21T15:42:29.368Z,1.03
2023-01-21T15:45:03.562Z,2.20
2023-01-21T15:47:36.883Z,0.20
2023-01-21T15:50:04.170Z,0.20
2023-01-21T15:52:41.201Z,0.40
2023-01-21T15:55:17.705Z,0.20
2023-01-21T15:57:54.287Z,0.60
2023-01-21T16:00:32.340Z,0.30
2023-01-21T16:03:02.890Z,0.30
2023-01-21T16:05:30.164Z,0.20
2023-01-21T16:08:12.597Z,0.37
2023-01-21T16:10:58.831Z,0.30
2023-01-21T16:13:39.263Z,0.33
2023-01-21T16:16:12.860Z,0.30
2023-01-21T16:18:40.332Z,1.53
2023-01-21T16:21:07.579Z,0.47
2023-01-21T16:23:35.837Z,1.27
2023-01-21T16:26:03.288Z,0.37
2023-01-21T16:28:46.532Z,0.33
2023-01-21T16:31:14.062Z,5.50
2023-01-21T16:33:42.446Z,0.77
2023-01-21T16:36:14.211Z,1.03
2023-01-21T16:38:42.081Z,1.67
2023-01-21T16:41:09.531Z,0.97
2023-01-21T16:43:57.288Z,2.23
2023-01-21T16:46:25.643Z,1.60
2023-01-21T16:48:53.474Z,1.07
2023-01-21T16:51:24.585Z,0.30
2023-01-21T16:53:55.125Z,1.43
2023-01-21T16:56:26.133Z,0.47
2023-01-21T16:58:53.490Z,0.73
2023-01-21T17:01:20.991Z,1.13
2023-01-21T17:03:48.406Z,0.50
2023-01-21T17:06:26.650Z,0.90
2023-01-21T17:08:55.446Z,0.30
2023-01-21T17:11:23.065Z,0.40
2023-01-21T17:13:50.482Z,0.40
2023-01-21T17:16:20.716Z,0.70
2023-01-21T17:18:52.578Z,0.97
2023-01-21T17:21:20.770Z,0.43
2023-01-21T17:23:52.684Z,0.57
2023-01-21T17:26:20.176Z,0.60
2023-01-21T17:28:48.203Z,0.80
2023-01-21T17:31:15.591Z,0.80
2023-01-21T17:33:45.938Z,0.30
2023-01-21T17:36:14.029Z,2.20
2023-01-21T17:38:42.176Z,0.37
2023-01-21T17:41:11.742Z,0.40
2023-01-21T17:43:39.899Z,2.03
2023-01-21T17:46:07.257Z,0.30
2023-01-21T17:48:34.637Z,1.65
2023-01-21T17:51:05.875Z,0.93
2023-01-21T17:53:33.514Z,0.40
2023-01-21T17:56:00.898Z,2.33
2023-01-21T17:58:37.411Z,0.40
2023-01-21T18:01:04.850Z,0.43
2023-01-21T18:03:32.122Z,0.63
2023-01-21T18:05:59.468Z,0.30
2023-01-21T18:08:26.807Z,2.57
2023-01-21T18:10:54.145Z,0.40
2023-01-21T18:13:22.094Z,1.53
2023-01-21T18:15:51.793Z,0.40
2023-01-21T18:18:22.955Z,2.47
2023-01-21T18:20:50.409Z,1.27
2023-01-21T18:23:18.312Z,0.40
2023-01-21T18:25:49.035Z,0.40
2023-01-21T18:28:20.215Z,1.90
2023-01-21T18:30:47.632Z,0.40
2023-01-21T18:33:15.019Z,1.17
2023-01-21T18:35:45.847Z,0.40
2023-01-21T18:38:13.390Z,1.37
2023-01-21T18:40:40.825Z,0.33
2023-01-21T18:43:08.181Z,0.40
2023-01-21T18:45:35.491Z,1.00
2023-01-21T18:48:02.828Z,0.50
2023-01-21T18:50:30.483Z,1.03
2023-01-21T18:52:57.924Z,0.83
2023-01-21T18:55:27.101Z,1.90
2023-01-21T18:57:55.246Z,1.07
2023-01-21T19:00:25.527Z,0.30
2023-01-21T19:02:53.694Z,1.17
2023-01-21T19:05:30.536Z,3.67
2023-01-21T19:07:58.253Z,0.50
2023-01-21T19:10:25.618Z,0.40
2023-01-21T19:12:53.030Z,1.00
2023-01-21T19:15:20.984Z,0.30
2023-01-21T19:17:48.439Z,0.73
2023-01-21T19:20:16.652Z,0.30
2023-01-21T19:22:44.240Z,0.97
2023-01-21T19:25:11.636Z,0.40
2023-01-21T19:27:43.167Z,0.40
2023-01-21T19:30:26.741Z,0.67
2023-01-21T19:32:54.549Z,0.63
2023-01-21T19:35:23.579Z,1.33
2023-01-21T19:37:51.061Z,0.67
2023-01-21T19:40:22.216Z,1.53
2023-01-21T19:42:49.683Z,2.20
2023-01-21T19:45:17.395Z,0.30
2023-01-21T19:47:45.246Z,0.30
2023-01-21T19:50:32.886Z,0.80
2023-01-21T19:53:00.355Z,0.30
2023-01-21T19:55:27.667Z,0.60
2023-01-21T19:58:01.582Z,0.73
2023-01-21T20:00:31.609Z,1.33
2023-01-21T20:02:58.980Z,0.70
2023-01-21T20:05:27.450Z,0.30
2023-01-21T20:07:54.716Z,0.40
2023-01-21T20:10:25.612Z,0.40
2023-01-21T20:12:53.066Z,0.40
2023-01-21T20:15:22.115Z,0.40
2023-01-21T20:17:53.255Z,0.40
2023-01-21T20:20:21.736Z,0.97
2023-01-21T20:22:49.146Z,0.60
2023-01-21T20:25:16.789Z,0.30
2023-01-21T20:27:45.122Z,0.30
2023-01-21T20:30:20.104Z,0.40
2023-01-21T20:32:47.690Z,1.60
2023-01-21T20:35:16.114Z,0.30
2023-01-21T20:37:45.593Z,0.40
2023-01-21T20:40:22.023Z,0.40
2023-01-21T20:42:49.493Z,0.40
2023-01-21T20:45:17.466Z,0.30
2023-01-21T20:47:50.061Z,0.30
2023-01-21T20:50:36.232Z,1.37
2023-01-21T20:53:03.896Z,0.20
2023-01-21T20:55:31.584Z,0.57
2023-01-21T20:57:59.031Z,0.37
2023-01-21T21:00:31.620Z,1.43
2023-01-21T21:02:58.954Z,1.20
2023-01-21T21:05:27.609Z,0.30
2023-01-21T21:07:55.241Z,0.70
2023-01-21T21:10:23.827Z,0.93
2023-01-21T21:12:51.221Z,3.43
2023-01-21T21:15:19.743Z,0.40
2023-01-21T21:17:47.364Z,1.47
2023-01-21T21:20:19.244Z,0.40
2023-01-21T21:22:46.893Z,0.30
2023-01-21T21:25:17.751Z,0.60
2023-01-21T21:27:45.273Z,0.67
2023-01-21T21:30:39.146Z,0.30
2023-01-21T21:33:08.588Z,1.53
2023-01-21T21:35:36.400Z,0.30
2023-01-21T21:38:04.554Z,0.60
2023-01-21T21:40:32.508Z,0.80
2023-01-21T21:43:18.688Z,0.80
2023-01-21T21:46:05.135Z,1.17
2023-01-21T21:48:38.656Z,0.30
2023-01-21T21:51:06.708Z,2.93
2023-01-21T21:53:34.031Z,0.97
2023-01-21T21:56:08.381Z,0.30
2023-01-21T21:58:35.892Z,4.13
2023-01-21T22:01:16.851Z,0.77
2023-01-21T22:03:44.412Z,0.50
2023-01-21T22:06:11.832Z,0.40
2023-01-21T22:08:39.893Z,0.40
2023-01-21T22:11:08.311Z,0.30
2023-01-21T22:13:40.374Z,0.57
2023-01-21T22:16:08.341Z,1.13
2023-01-21T22:18:35.739Z,0.30
2023-01-21T22:21:03.776Z,0.70
2023-01-21T22:23:31.605Z,0.37
2023-01-21T22:26:00.357Z,0.40
2023-01-21T22:28:27.628Z,0.90
2023-01-21T22:30:55.164Z,0.83
2023-01-21T22:33:22.544Z,2.33
2023-01-21T22:35:49.899Z,0.40
2023-01-21T22:38:17.113Z,0.83
2023-01-21T22:40:44.406Z,1.17
2023-01-21T22:43:12.255Z,0.40
2023-01-21T22:45:40.938Z,0.47
2023-01-21T22:48:08.241Z,1.27
2023-01-21T22:50:35.600Z,0.57
2023-01-21T22:53:03.100Z,0.43
2023-01-21T22:55:30.371Z,1.10
2023-01-21T22:57:57.712Z,1.63
2023-01-21T23:00:36.040Z,1.23
2023-01-21T23:03:03.492Z,0.40
2023-01-21T23:05:31.099Z,0.40
2023-01-21T23:10:30.691Z,0.40
2023-01-21T23:12:57.993Z,0.30
2023-01-21T23:15:25.437Z,0.30
2023-01-21T23:17:55.513Z,0.40
2023-01-21T23:20:22.925Z,0.30
2023-01-21T23:22:50.181Z,0.60
2023-01-21T23:25:17.546Z,0.40
2023-01-21T23:27:46.262Z,0.33
2023-01-21T23:30:13.656Z,0.40
2023-01-21T23:32:41.018Z,1.23
2023-01-21T23:35:08.463Z,0.33
2023-01-21T23:37:35.858Z,0.63
2023-01-21T23:40:03.247Z,0.60
2023-01-21T23:42:30.601Z,0.40
2023-01-21T23:44:57.916Z,0.60
2023-01-21T23:47:25.231Z,0.50
2023-01-21T23:49:52.551Z,0.50
2023-01-21T23:52:19.896Z,0.30
2023-01-21T23:54:47.300Z,0.33
2023-01-21T23:57:14.728Z,0.70
2023-01-21T23:59:42.079Z,0.53
